METAR - Ísland

Uppfært síðast 16.10.2021 - kl. 21:51

SIGMET síðustu 6 klst.

Engin SIGMET skeyti bárust síðustu 6 klst.

METAR síðustu 3 klst

Frá og með 1. október munu brautarskilyrði ekki birtast í METAR skeytum.
Í staðinn mun ISAVIA gefa út SNOWTAM á síðunni SNOWTAM | Isavia.

Flugv.TímiSkeyti
BIAR2021-10-16 21.00METAR BIAR 162100Z 00000KT 9999 SCT041 00/M05 Q1018
BIAR2021-10-16 20.00METAR BIAR 162000Z 34003KT 290V010 9999 SCT041 01/M05 Q1018
BIAR2021-10-16 19.00METAR BIAR 161900Z VRB01KT 9999 BKN040 01/M05 Q1018
BIEG2021-10-16 21.00METAR COR BIEG 162100Z 09003KT 9999 -FZDZ FEW028 SCT034 BKN039 M01/M01 Q1018
BIEG2021-10-16 21.00METAR BIEG 162100Z 09003KT 9999 -DZ FEW028 SCT034 BKN039 M01/M01 Q1018
BIEG2021-10-16 20.00METAR BIEG 162000Z 08003KT 9999 VCSH FEW010 SCT030 BKN040 M01/M02 Q1018
BIEG2021-10-16 19.00METAR BIEG 161900Z 33004KT 9999 VCSH SCT030 BKN040 BKN050 00/M02 Q1018
BIKF2021-10-16 21.30METAR BIKF 162130Z 06010KT 9999 -DZ FEW012 BKN020 BKN040 03/01 Q1013
BIKF2021-10-16 21.00METAR BIKF 162100Z 06008KT 5000 -DZRA FEW010 BKN015 OVC025 03/02 Q1013
BIKF2021-10-16 20.30METAR BIKF 162030Z 06009KT 8000 -DZRA BKN018 BKN035 03/01 Q1013
BIKF2021-10-16 20.00METAR BIKF 162000Z 07008KT 040V110 9999 -DZ BKN019 BKN035 03/01 Q1013
BIKF2021-10-16 19.30METAR BIKF 161930Z 05010KT 9999 -DZ SCT011 BKN020 BKN034 03/01 Q1013
BIKF2021-10-16 19.01METAR BIKF 161901Z 06010KT 7000 -DZ BKN013 BKN034 03/02 Q1013
BIKF2021-10-16 19.00METAR BIKF 161900Z 06009KT 9999 -DZ BKN017 BKN034 03/02 Q1013
BIRK2021-10-16 21.00METAR BIRK 162100Z 06010KT 9999 VCSH FEW025 OVC051 03/M01 Q1013
BIRK2021-10-16 20.00METAR BIRK 162000Z 07009KT 9999 -RA SCT025 OVC043 04/M01 Q1013
BIRK2021-10-16 19.00METAR BIRK 161900Z 06007KT 9999 -RA OVC040 04/M02 Q1013

Textaspár eru skrifaðar af vakthafandi veðurfræðingi á Veðurstofu Íslands.




Aðrir tengdir vefir



Þetta vefsvæði byggir á Eplica